Algoma Mariner — CFN5517 — position and weather

sailwx.info

Track history (hours):
 
Tides and Currents Weather Stations Pressure Air Temp Water Temp Dewpoint Dewpoint Depression Visibility Wind Speed Wind Dir Waves Ship Positions

Algoma Mariner

Last reported at 2016-May-24 12:07 UTC. Time now 2016-May-26 20:27 UTC.
Position N 46°18' W 072°34'.

Length 225 m; draft 11 m.

Type: Cargo ship. MMSI: 316014050.

Date/timePositionNaut miles runAvg speedWind from/ knotsBaromVisibWave heightAir tempDewpointWater temp
2016-May-24 12:07N 46°18' W 072°34'610.2
2016-May-24 11:34N 46°16' W 072°41'1513.4
2016-May-24 10:28N 46°07' W 072°58'1112.6
2016-May-24 09:33N 45°60' W 073°11'1110.4
2016-May-24 08:31N 45°50' W 073°17'0 0.0
2016-May-24 07:33N 45°50' W 073°17'0 0.0
2016-May-24 06:33N 45°50' W 073°17'0 0.0
2016-May-24 05:33N 45°50' W 073°17'0 0.0
2016-May-24 04:33N 45°50' W 073°17'0 0.0
2016-May-24 03:33N 45°50' W 073°17'0 0.0
2016-May-24 02:33N 45°50' W 073°17'0 0.0
2016-May-24 01:33N 45°50' W 073°17'0 0.0
2016-May-24 00:33N 45°50' W 073°17'0 0.0
2016-May-23 23:33N 45°50' W 073°17'0 0.0
2016-May-23 22:33N 45°50' W 073°17'3 2.5
2016-May-23 21:33N 45°52' W 073°15'9 8.9
2016-May-23 20:33N 46°01' W 073°11'9 8.9
2016-May-23 19:33N 46°05' W 072°60'  
2016-May-19 08:17N 46°04' W 073°03'912.5
2016-May-19 07:33N 45°58' W 073°12'8 8.4
2016-May-19 06:34N 45°50' W 073°17'0 0.0
2016-May-19 04:33N 45°50' W 073°17'0 0.0
2016-May-19 03:32N 45°50' W 073°17'0 0.0
2016-May-19 02:26N 45°50' W 073°17'0 0.0
2016-May-19 01:30N 45°50' W 073°17'0 0.0
2016-May-19 00:23N 45°50' W 073°17'0 0.0
2016-May-18 23:32N 45°50' W 073°17'0 0.0
2016-May-18 22:32N 45°50' W 073°17'0 0.0
2016-May-18 21:30N 45°50' W 073°17'0 0.0
2016-May-18 20:33N 45°50' W 073°17'0 0.0
2016-May-18 19:33N 45°50' W 073°17'3 2.8
2016-May-18 18:33N 45°52' W 073°15'9 8.8
2016-May-18 17:33N 46°01' W 073°10'8 7.6
2016-May-18 16:33N 46°05' W 073°01'8 7.8
2016-May-18 15:33N 46°11' W 072°55'  
Track history (hours):
 
Tides and Currents Weather Stations Pressure Air Temp Water Temp Dewpoint Dewpoint Depression Visibility Wind Speed Wind Dir Waves Ship Positions

Algoma Mariner

Last reported at 2016-May-24 12:07 UTC. Time now 2016-May-26 20:27 UTC.
Position N 46°18' W 072°34'.

Length 225 m; draft 11 m.

Type: Cargo ship. MMSI: 316014050.

Date/timePositionNaut miles runAvg speedWind from/ knotsBaromVisibWave heightAir tempDewpointWater temp
2016-May-24 12:07N 46°18' W 072°34'610.2
2016-May-24 11:34N 46°16' W 072°41'1513.4
2016-May-24 10:28N 46°07' W 072°58'1112.6
2016-May-24 09:33N 45°60' W 073°11'1110.4
2016-May-24 08:31N 45°50' W 073°17'0 0.0
2016-May-24 07:33N 45°50' W 073°17'0 0.0
2016-May-24 06:33N 45°50' W 073°17'0 0.0
2016-May-24 05:33N 45°50' W 073°17'0 0.0
2016-May-24 04:33N 45°50' W 073°17'0 0.0
2016-May-24 03:33N 45°50' W 073°17'0 0.0
2016-May-24 02:33N 45°50' W 073°17'0 0.0
2016-May-24 01:33N 45°50' W 073°17'0 0.0
2016-May-24 00:33N 45°50' W 073°17'0 0.0
2016-May-23 23:33N 45°50' W 073°17'0 0.0
2016-May-23 22:33N 45°50' W 073°17'3 2.5
2016-May-23 21:33N 45°52' W 073°15'9 8.9
2016-May-23 20:33N 46°01' W 073°11'9 8.9
2016-May-23 19:33N 46°05' W 072°60'  
2016-May-19 08:17N 46°04' W 073°03'912.5
2016-May-19 07:33N 45°58' W 073°12'8 8.4
2016-May-19 06:34N 45°50' W 073°17'0 0.0
2016-May-19 04:33N 45°50' W 073°17'0 0.0
2016-May-19 03:32N 45°50' W 073°17'0 0.0
2016-May-19 02:26N 45°50' W 073°17'0 0.0
2016-May-19 01:30N 45°50' W 073°17'0 0.0
2016-May-19 00:23N 45°50' W 073°17'0 0.0
2016-May-18 23:32N 45°50' W 073°17'0 0.0
2016-May-18 22:32N 45°50' W 073°17'0 0.0
2016-May-18 21:30N 45°50' W 073°17'0 0.0
2016-May-18 20:33N 45°50' W 073°17'0 0.0
2016-May-18 19:33N 45°50' W 073°17'3 2.8
2016-May-18 18:33N 45°52' W 073°15'9 8.8
2016-May-18 17:33N 46°01' W 073°10'8 7.6
2016-May-18 16:33N 46°05' W 073°01'8 7.8
2016-May-18 15:33N 46°11' W 072°55'  

Dump ship's entire track history